Time;durP1;ratioP1;P1;durP2;ratioP2;P2;SDS_P1;SDS_P2;PMS_P1;PMS_P2;Temp;Humidity;BMP_temperature;BMP_pressure;BME280_temperature;BME280_humidity;BME280_pressure;Samples;Min_cycle;Max_cycle;Signal;HPM_P1;HPM_P2
2022/04/24 00:01:27;;;;;;;5.18;4.78;;;19.60;50.30;;;;;;4854225;29;98982;-71
2022/04/24 00:03:53;;;;;;;4.75;4.35;;;19.60;49.40;;;;;;4853069;29;100189;-70
2022/04/24 00:06:19;;;;;;;4.93;4.53;;;19.60;49.40;;;;;;4853787;29;100646;-71
2022/04/24 00:08:46;;;;;;;5.13;4.63;;;19.50;49.30;;;;;;4853208;28;99040;-71
2022/04/24 00:11:12;;;;;;;5.18;4.70;;;19.50;49.30;;;;;;4853519;29;99032;-70
2022/04/24 00:13:37;;;;;;;5.10;4.60;;;19.60;49.30;;;;;;4835193;29;101200;-71
2022/04/24 00:16:05;;;;;;;5.75;4.70;;;19.50;49.30;;;;;;4853080;29;98881;-71
2022/04/24 00:18:30;;;;;;;5.47;4.90;;;19.50;49.30;;;;;;4853605;29;98592;-71
2022/04/24 00:20:57;;;;;;;5.50;4.90;;;19.50;49.30;;;;;;4853560;29;99909;-72
2022/04/24 00:23:22;;;;;;;4.95;4.55;;;19.50;49.30;;;;;;4852644;29;108824;-70
2022/04/24 00:25:48;;;;;;;5.18;4.68;;;19.50;49.30;;;;;;4853397;29;99189;-69
2022/04/24 00:28:14;;;;;;;5.30;4.80;;;19.50;49.20;;;;;;4853711;29;99082;-70
2022/04/24 00:30:39;;;;;;;5.07;4.57;;;19.50;49.20;;;;;;4854049;29;97959;-70
2022/04/24 00:33:05;;;;;;;4.90;4.50;;;19.50;49.20;;;;;;4854235;29;100231;-71
2022/04/24 00:35:31;;;;;;;5.28;4.88;;;19.50;49.20;;;;;;4852634;29;103400;-70
2022/04/24 00:37:57;;;;;;;4.80;4.40;;;19.50;49.30;;;;;;4852972;29;100486;-71
2022/04/24 00:40:23;;;;;;;4.90;4.50;;;19.50;49.20;;;;;;4853411;29;98840;-71
2022/04/24 00:42:49;;;;;;;5.40;5.00;;;19.50;49.20;;;;;;4852572;29;99405;-70
2022/04/24 00:45:15;;;;;;;5.18;4.65;;;19.50;49.20;;;;;;4852855;29;99711;-70
2022/04/24 00:47:41;;;;;;;5.30;4.85;;;19.50;49.20;;;;;;4853002;29;98983;-69
2022/04/24 00:50:13;;;;;;;5.07;4.65;;;19.40;49.20;;;;;;5068615;27;86564;-71
2022/04/24 00:52:38;;;;;;;5.30;4.80;;;19.40;49.20;;;;;;5050523;27;89129;-71
2022/04/24 00:55:05;;;;;;;5.85;4.85;;;19.40;49.20;;;;;;5051631;27;87050;-71
2022/04/24 00:57:31;;;;;;;4.93;4.50;;;19.40;49.10;;;;;;5050733;27;86515;-71
2022/04/24 00:59:58;;;;;;;5.38;4.88;;;19.40;49.10;;;;;;5051000;27;87863;-71
2022/04/24 01:02:24;;;;;;;4.93;4.53;;;19.40;49.10;;;;;;5050637;27;87993;-71
2022/04/24 01:04:50;;;;;;;5.10;4.55;;;19.40;49.10;;;;;;5050399;27;86608;-71
2022/04/24 01:07:15;;;;;;;5.40;4.90;;;19.40;49.10;;;;;;5050747;27;86593;-71
2022/04/24 01:09:41;;;;;;;5.28;4.88;;;19.40;49.10;;;;;;5049248;27;88053;-71
2022/04/24 01:12:07;;;;;;;5.28;4.78;;;19.40;49.10;;;;;;5051143;27;88006;-71
2022/04/24 01:14:34;;;;;;;6.47;5.13;;;19.40;49.00;;;;;;5049893;27;87648;-71
2022/04/24 01:17:03;;;;;;;5.30;4.80;;;19.40;49.00;;;;;;5050606;27;86454;-72
2022/04/24 01:19:29;;;;;;;4.97;4.57;;;19.40;49.00;;;;;;5050101;27;87573;-71
2022/04/24 01:21:56;;;;;;;5.15;4.65;;;19.40;49.00;;;;;;5050258;27;86872;-71
2022/04/24 01:24:29;;;;;;;5.05;4.50;;;19.40;49.00;;;;;;5051414;27;87076;-71
2022/04/24 01:26:55;;;;;;;5.95;4.90;;;19.40;49.00;;;;;;5049995;27;86632;-71
2022/04/24 01:29:21;;;;;;;5.07;4.57;;;19.40;49.00;;;;;;5050229;27;88623;-72
2022/04/24 01:31:50;;;;;;;4.80;4.40;;;19.40;49.00;;;;;;5050392;27;87241;-72
2022/04/24 01:34:17;;;;;;;5.20;4.80;;;19.40;49.00;;;;;;5049647;27;87867;-72
2022/04/24 01:36:42;;;;;;;4.90;4.50;;;19.40;49.00;;;;;;5049405;27;86620;-70
2022/04/24 01:39:08;;;;;;;4.65;4.25;;;19.30;49.00;;;;;;5049899;27;88440;-71
2022/04/24 01:41:34;;;;;;;4.90;4.50;;;19.30;49.00;;;;;;5049088;27;87346;-71
2022/04/24 01:44:00;;;;;;;5.13;4.72;;;19.30;49.00;;;;;;5048790;27;87164;-71
2022/04/24 01:46:26;;;;;;;4.97;4.53;;;19.30;48.90;;;;;;5049804;27;87095;-71
2022/04/24 01:48:52;;;;;;;5.07;4.57;;;19.30;49.00;;;;;;5049527;27;87751;-71
2022/04/24 01:51:17;;;;;;;5.00;4.57;;;19.30;48.90;;;;;;5049900;27;87688;-70
2022/04/24 01:53:44;;;;;;;4.82;4.35;;;19.30;49.00;;;;;;5050087;27;86830;-71
2022/04/24 01:56:13;;;;;;;5.07;4.60;;;19.30;49.00;;;;;;5049248;27;87108;-71
2022/04/24 01:58:39;;;;;;;4.85;4.45;;;19.30;48.90;;;;;;5049636;27;89546;-71
2022/04/24 02:01:06;;;;;;;4.90;4.50;;;19.30;48.90;;;;;;5038706;27;89072;-70
2022/04/24 02:03:33;;;;;;;5.35;4.82;;;19.30;48.90;;;;;;5037065;27;87873;-71
2022/04/24 02:06:03;;;;;;;4.97;4.57;;;19.30;48.90;;;;;;5037964;27;86532;-72
2022/04/24 02:08:31;;;;;;;4.78;4.30;;;19.30;48.90;;;;;;5041650;28;87331;-71
2022/04/24 02:10:58;;;;;;;4.50;4.10;;;19.30;48.90;;;;;;5037394;27;88317;-71
2022/04/24 02:13:24;;;;;;;4.57;4.28;;;19.30;48.90;;;;;;5038182;27;87683;-71
2022/04/24 02:15:51;;;;;;;4.70;4.30;;;19.30;48.90;;;;;;5036087;27;87004;-73
2022/04/24 02:18:16;;;;;;;4.82;4.35;;;19.30;49.00;;;;;;5036525;27;88480;-72
2022/04/24 02:20:45;;;;;;;4.63;4.22;;;19.20;48.90;;;;;;5036023;27;88062;-72
2022/04/24 02:23:11;;;;;;;4.75;4.35;;;19.30;48.90;;;;;;5036275;27;87056;-72
2022/04/24 02:25:36;;;;;;;4.40;4.00;;;19.20;48.80;;;;;;5036158;27;86713;-71
2022/04/24 02:28:03;;;;;;;5.07;4.57;;;19.20;48.90;;;;;;5035158;28;87641;-72
2022/04/24 02:30:30;;;;;;;4.65;4.25;;;19.20;48.90;;;;;;5034864;27;88985;-71
2022/04/24 02:32:58;;;;;;;4.68;4.28;;;19.20;49.80;;;;;;5035607;27;88317;-71
2022/04/24 02:35:25;;;;;;;4.68;4.28;;;19.20;48.80;;;;;;5035875;27;86605;-72
2022/04/24 02:37:52;;;;;;;4.55;4.15;;;19.20;48.90;;;;;;5034606;27;88089;-71
2022/04/24 02:40:21;;;;;;;4.63;4.15;;;19.20;48.90;;;;;;5035490;28;87475;-71
2022/04/24 02:42:52;;;;;;;4.47;4.07;;;19.20;49.00;;;;;;5034819;28;88145;-71
2022/04/24 02:45:18;;;;;;;4.60;4.20;;;19.20;49.00;;;;;;5034528;27;86844;-72
2022/04/24 02:47:46;;;;;;;4.60;4.22;;;19.20;49.00;;;;;;5034699;27;87233;-71
2022/04/24 02:50:12;;;;;;;5.70;4.25;;;19.10;48.90;;;;;;5035152;27;88091;-71
2022/04/24 02:52:51;;;;;;;5.18;4.03;;;19.20;49.00;;;;;;5035147;27;87590;-71
2022/04/24 02:55:18;;;;;;;4.72;4.32;;;19.20;49.00;;;;;;5035728;27;87072;-71
2022/04/24 02:57:44;;;;;;;4.57;3.90;;;19.20;49.00;;;;;;5035208;27;87810;-72
2022/04/24 03:00:12;;;;;;;4.43;4.07;;;19.10;48.90;;;;;;5034399;27;89546;-71
2022/04/24 03:02:42;;;;;;;4.40;4.00;;;19.20;49.00;;;;;;5034908;27;88312;-71
2022/04/24 03:05:10;;;;;;;4.43;3.88;;;19.20;48.90;;;;;;5034994;27;87034;-70
2022/04/24 03:07:35;;;;;;;3.95;3.65;;;19.10;48.80;;;;;;5035085;28;87300;-70
2022/04/24 03:10:01;;;;;;;4.10;3.70;;;19.10;48.80;;;;;;5034403;28;88075;-72
2022/04/24 03:12:29;;;;;;;3.85;3.55;;;19.10;48.80;;;;;;5034134;27;86819;-72
2022/04/24 03:14:56;;;;;;;4.70;3.95;;;19.10;48.80;;;;;;5035409;28;86960;-72
2022/04/24 04:20:44;;;;;;;4.57;4.18;;;18.90;48.70;;;;;;4963673;28;88759;-66
2022/04/24 04:23:10;;;;;;;4.05;3.58;;;19.00;48.80;;;;;;4974040;28;88666;-66
2022/04/24 04:25:36;;;;;;;4.15;3.75;;;19.00;48.80;;;;;;4973788;28;90075;-66
2022/04/24 04:28:02;;;;;;;4.38;3.75;;;19.00;48.70;;;;;;4974386;28;87092;-66
2022/04/24 04:30:28;;;;;;;11.80;4.10;;;19.00;48.50;;;;;;4972839;28;87087;-66
2022/04/24 04:32:54;;;;;;;6.80;3.70;;;19.00;48.60;;;;;;4973005;28;98506;-66
2022/04/24 04:35:22;;;;;;;8.13;3.95;;;18.90;48.70;;;;;;4973949;28;86918;-66
2022/04/24 04:37:48;;;;;;;5.05;4.00;;;19.00;48.60;;;;;;4955436;28;87510;-66
2022/04/24 04:40:14;;;;;;;3.90;3.60;;;19.00;48.50;;;;;;4972403;28;87538;-67
2022/04/24 04:42:40;;;;;;;4.70;3.60;;;19.00;48.40;;;;;;4972849;28;89473;-66
2022/04/24 04:45:06;;;;;;;4.53;3.50;;;19.00;48.40;;;;;;4973211;28;88568;-67
2022/04/24 04:47:32;;;;;;;4.15;3.83;;;19.00;48.40;;;;;;4973412;28;86778;-66
2022/04/24 04:49:57;;;;;;;6.05;3.53;;;19.00;48.50;;;;;;4972409;28;86657;-67
2022/04/24 04:52:23;;;;;;;5.38;3.35;;;19.00;48.60;;;;;;4972484;28;88360;-67
2022/04/24 04:54:50;;;;;;;4.20;3.63;;;19.00;48.50;;;;;;4973345;28;88245;-66
2022/04/24 04:57:16;;;;;;;5.38;3.53;;;19.00;48.60;;;;;;4973822;28;87636;-67
2022/04/24 04:59:42;;;;;;;3.60;3.30;;;19.00;48.60;;;;;;4973071;28;86647;-67
2022/04/24 05:02:08;;;;;;;4.63;3.78;;;18.90;49.60;;;;;;4972413;28;88682;-67
2022/04/24 05:04:34;;;;;;;4.30;3.90;;;19.00;48.50;;;;;;4972175;28;90096;-66
2022/04/24 05:07:00;;;;;;;3.88;3.58;;;18.90;48.50;;;;;;4972223;28;90246;-66
2022/04/24 05:09:25;;;;;;;3.70;3.40;;;19.00;48.60;;;;;;4971549;28;88238;-67
2022/04/24 05:11:51;;;;;;;4.35;3.50;;;19.00;48.70;;;;;;4971394;28;90607;-67
2022/04/24 05:14:17;;;;;;;3.50;3.20;;;19.00;49.70;;;;;;4971175;28;89172;-66
2022/04/24 05:16:43;;;;;;;5.70;3.70;;;19.00;48.80;;;;;;4971432;28;95301;-66
2022/04/24 05:19:08;;;;;;;5.28;3.45;;;19.00;48.80;;;;;;4971089;28;94179;-66
2022/04/24 05:21:34;;;;;;;8.48;3.78;;;19.00;48.80;;;;;;4972125;28;89695;-66
2022/04/24 05:24:00;;;;;;;5.85;3.30;;;19.00;48.60;;;;;;4971764;28;89135;-65
2022/04/24 05:26:26;;;;;;;6.40;3.63;;;19.00;48.60;;;;;;4972159;28;88012;-66
2022/04/24 05:28:52;;;;;;;3.70;3.40;;;19.00;48.50;;;;;;4972925;28;87279;-66
2022/04/24 05:31:18;;;;;;;12.43;3.70;;;19.10;48.60;;;;;;4972119;28;90449;-66
2022/04/24 05:33:44;;;;;;;4.70;3.63;;;19.10;48.80;;;;;;4971751;28;89326;-66
2022/04/24 05:36:10;;;;;;;4.88;3.75;;;19.10;48.80;;;;;;4973190;28;88762;-66
2022/04/24 05:38:36;;;;;;;5.88;3.63;;;19.10;48.90;;;;;;4974838;28;90172;-65
2022/04/24 05:41:02;;;;;;;5.15;3.60;;;19.10;48.90;;;;;;4974649;28;89819;-66
2022/04/24 05:43:29;;;;;;;4.07;3.28;;;19.10;48.90;;;;;;4974786;28;90354;-66
2022/04/24 05:45:55;;;;;;;5.95;3.33;;;19.10;49.10;;;;;;4975256;28;88852;-66
2022/04/24 05:48:22;;;;;;;4.20;3.80;;;19.10;49.10;;;;;;4975290;28;88611;-66
2022/04/24 05:50:48;;;;;;;4.28;3.67;;;19.10;49.20;;;;;;4975134;28;90443;-66
2022/04/24 05:53:14;;;;;;;5.63;3.20;;;19.10;49.00;;;;;;4975086;28;89608;-66
2022/04/24 05:55:39;;;;;;;4.45;3.33;;;19.10;49.00;;;;;;4975056;28;88646;-66
2022/04/24 05:58:05;;;;;;;4.00;3.70;;;19.10;49.00;;;;;;4974734;28;88038;-66
2022/04/24 06:00:31;;;;;;;9.10;3.60;;;19.10;49.00;;;;;;4974317;28;90817;-66
2022/04/24 06:02:57;;;;;;;4.47;3.60;;;19.10;49.00;;;;;;4975912;28;91177;-65
2022/04/24 06:05:23;;;;;;;4.95;3.42;;;19.10;49.10;;;;;;4975727;28;88527;-66
2022/04/24 06:07:50;;;;;;;3.90;3.50;;;19.20;49.20;;;;;;4974749;28;89842;-66
2022/04/24 06:10:16;;;;;;;4.90;3.60;;;19.10;49.00;;;;;;4974788;28;88696;-66
2022/04/24 06:12:47;;;;;;;4.85;3.50;;;19.20;49.10;;;;;;4973883;28;89849;-66
2022/04/24 06:15:16;;;;;;;6.55;3.63;;;19.10;49.00;;;;;;4974301;28;88655;-66
2022/04/24 06:17:47;;;;;;;7.55;3.50;;;19.10;49.00;;;;;;4975450;28;87382;-66
2022/04/24 06:20:15;;;;;;;8.02;3.60;;;19.20;49.30;;;;;;4974361;28;90225;-66
2022/04/24 06:22:51;;;;;;;8.13;3.72;;;19.10;50.30;;;;;;4975719;28;89634;-66
2022/04/24 06:25:19;;;;;;;6.38;3.55;;;19.20;49.30;;;;;;4975065;28;88873;-66
2022/04/24 06:27:46;;;;;;;9.20;3.83;;;19.10;49.30;;;;;;4974763;28;88660;-66
2022/04/24 06:30:14;;;;;;;4.30;3.42;;;19.20;49.20;;;;;;4956572;28;88745;-67
2022/04/24 07:36:51;;;;;;;10.65;3.65;;;19.30;50.90;;;;;;4154769;22;89729;-73
2022/04/24 07:39:17;;;;;;;5.78;3.80;;;19.30;50.90;;;;;;4954048;28;88191;-72
2022/04/24 07:41:42;;;;;;;10.93;3.63;;;19.40;51.10;;;;;;4952734;28;88895;-73
2022/04/24 07:44:08;;;;;;;9.40;3.22;;;19.40;51.20;;;;;;4953160;28;95432;-72
2022/04/24 07:46:34;;;;;;;12.52;3.67;;;19.40;51.20;;;;;;4953924;28;89061;-72
2022/04/24 07:49:00;;;;;;;7.03;3.53;;;19.40;51.10;;;;;;4953055;28;88189;-72
2022/04/24 07:51:25;;;;;;;13.00;3.75;;;19.40;51.10;;;;;;4953324;28;88126;-71
2022/04/24 07:53:52;;;;;;;7.85;3.50;;;19.40;51.00;;;;;;4953760;28;89687;-72
2022/04/24 07:56:17;;;;;;;18.05;3.70;;;19.40;51.00;;;;;;4952831;28;98515;-71
2022/04/24 07:58:43;;;;;;;10.30;3.55;;;19.40;50.90;;;;;;4952337;28;103309;-71
2022/04/24 08:01:11;;;;;;;9.07;3.53;;;19.40;50.90;;;;;;4953002;28;87268;-72
2022/04/24 08:03:36;;;;;;;8.73;3.72;;;19.30;50.90;;;;;;4952688;28;89678;-72
2022/04/24 08:06:02;;;;;;;7.50;3.50;;;19.30;50.90;;;;;;4952448;28;89452;-72
2022/04/24 08:08:28;;;;;;;7.00;3.42;;;19.30;51.80;;;;;;4952839;28;88918;-73
2022/04/24 08:10:56;;;;;;;8.40;3.40;;;19.30;50.90;;;;;;4952891;28;88670;-71
2022/04/24 08:13:22;;;;;;;10.60;3.72;;;19.20;50.70;;;;;;4952124;28;89763;-71
2022/04/24 08:15:49;;;;;;;8.52;3.40;;;19.20;50.70;;;;;;4952545;28;89689;-71
2022/04/24 08:18:15;;;;;;;9.13;3.45;;;19.20;50.70;;;;;;4952524;28;89005;-71
2022/04/24 08:20:42;;;;;;;8.77;3.40;;;19.20;50.70;;;;;;4952050;28;88513;-71
2022/04/24 08:23:09;;;;;;;8.77;3.38;;;19.20;50.70;;;;;;4952022;28;91403;-71
2022/04/24 08:25:36;;;;;;;5.85;3.45;;;19.20;50.60;;;;;;4952634;28;89779;-71
2022/04/24 08:28:07;;;;;;;3.63;3.22;;;19.20;50.70;;;;;;4951571;28;88601;-71
2022/04/24 08:30:34;;;;;;;6.68;3.20;;;19.20;50.60;;;;;;4952420;28;88541;-71
2022/04/24 08:33:00;;;;;;;4.45;3.05;;;19.20;50.60;;;;;;4952437;28;90484;-71
2022/04/24 08:35:25;;;;;;;6.13;3.50;;;19.10;50.50;;;;;;4952765;28;89470;-71
2022/04/24 08:37:51;;;;;;;8.60;3.33;;;19.20;50.60;;;;;;4951829;28;98283;-72
2022/04/24 08:40:19;;;;;;;6.88;3.50;;;19.10;50.50;;;;;;4952990;28;88664;-71
2022/04/24 08:42:45;;;;;;;8.45;3.42;;;19.10;50.40;;;;;;4952277;28;90111;-71
2022/04/24 08:45:15;;;;;;;5.45;3.60;;;19.10;50.40;;;;;;4952776;28;88289;-71
2022/04/24 08:47:43;;;;;;;5.95;3.40;;;19.20;50.40;;;;;;4951846;28;89074;-71
2022/04/24 08:50:09;;;;;;;4.82;3.28;;;19.20;50.40;;;;;;4953046;28;87706;-71
2022/04/24 08:52:35;;;;;;;4.97;3.47;;;19.20;50.30;;;;;;4935474;28;88865;-72
2022/04/24 08:55:02;;;;;;;4.47;3.13;;;19.20;50.30;;;;;;4952501;28;88315;-71
2022/04/24 08:57:30;;;;;;;6.35;3.10;;;19.10;50.30;;;;;;4952379;28;89104;-72
2022/04/24 09:00:00;;;;;;;6.93;3.58;;;19.10;50.20;;;;;;4952710;28;88143;-71
2022/04/24 09:02:26;;;;;;;6.70;3.22;;;19.20;51.20;;;;;;4934699;28;88794;-71
2022/04/24 09:04:53;;;;;;;5.55;3.35;;;19.10;50.10;;;;;;4951647;28;89392;-71
2022/04/24 09:07:19;;;;;;;5.53;3.50;;;19.20;50.10;;;;;;4952397;28;88017;-71
2022/04/24 09:09:48;;;;;;;4.90;3.08;;;19.10;50.10;;;;;;4952335;28;88521;-71
2022/04/24 09:12:23;;;;;;;5.50;3.28;;;19.10;50.10;;;;;;4957299;28;88584;-71
2022/04/24 09:14:53;;;;;;;4.90;3.15;;;19.10;50.00;;;;;;4957936;28;90013;-71
2022/04/24 09:17:27;;;;;;;5.53;3.38;;;19.10;50.00;;;;;;4961258;28;88099;-72
2022/04/24 09:19:54;;;;;;;5.20;3.13;;;19.20;50.00;;;;;;4958486;28;88155;-71
2022/04/24 09:22:22;;;;;;;5.60;3.42;;;19.10;50.00;;;;;;4955836;28;89564;-71
2022/04/24 09:24:55;;;;;;;5.78;2.88;;;19.10;50.00;;;;;;4955237;28;91030;-71
2022/04/24 09:27:35;;;;;;;4.72;3.10;;;19.20;50.00;;;;;;4955376;28;88540;-71
2022/04/24 09:30:05;;;;;;;7.03;2.70;;;19.20;50.00;;;;;;4955300;28;88161;-72
2022/04/24 09:32:44;;;;;;;6.03;3.42;;;19.10;50.00;;;;;;4956309;28;90400;-71
2022/04/24 09:35:09;;;;;;;3.92;3.20;;;19.10;49.90;;;;;;4954413;28;92227;-71
2022/04/24 09:37:39;;;;;;;5.25;3.20;;;19.20;49.90;;;;;;4938165;28;95943;-72
2022/04/24 09:40:06;;;;;;;4.80;2.90;;;19.20;50.00;;;;;;4955391;28;87321;-71
2022/04/24 09:42:31;;;;;;;4.97;3.50;;;19.20;49.80;;;;;;4955845;28;88807;-71
2022/04/24 09:44:59;;;;;;;3.70;3.10;;;19.20;49.70;;;;;;4955470;28;88439;-71
2022/04/24 09:47:26;;;;;;;4.63;3.00;;;19.20;49.70;;;;;;4955231;28;89292;-71
2022/04/24 09:49:53;;;;;;;3.65;3.22;;;19.20;49.60;;;;;;4954752;28;88069;-71
2022/04/24 09:52:22;;;;;;;3.55;2.97;;;19.20;49.40;;;;;;4956019;28;89062;-71
2022/04/24 09:54:49;;;;;;;3.47;3.00;;;19.20;49.30;;;;;;4954934;28;90719;-71
2022/04/24 09:57:16;;;;;;;3.78;3.10;;;19.20;49.20;;;;;;4956425;28;88118;-72
2022/04/24 09:59:44;;;;;;;3.22;2.88;;;19.30;49.10;;;;;;4937665;28;88612;-71
2022/04/24 10:02:11;;;;;;;4.55;3.13;;;19.30;49.00;;;;;;4955748;28;90018;-72
2022/04/24 10:04:39;;;;;;;3.13;2.83;;;19.30;48.90;;;;;;4957058;28;88467;-71
2022/04/24 10:07:06;;;;;;;4.03;2.90;;;19.40;49.00;;;;;;4955829;28;88381;-71
2022/04/24 10:09:34;;;;;;;4.05;2.72;;;19.40;48.80;;;;;;4954431;28;88209;-71
2022/04/24 10:12:20;;;;;;;5.72;3.00;;;19.40;48.70;;;;;;4955238;28;89481;-71
2022/04/24 10:14:51;;;;;;;4.63;2.85;;;19.40;48.60;;;;;;4956346;28;89033;-71
2022/04/24 10:17:54;;;;;;;3.25;2.88;;;19.40;48.60;;;;;;4955602;28;88078;-71
2022/04/24 10:20:41;;;;;;;3.20;2.90;;;19.50;48.70;;;;;;4955176;28;88090;-71
2022/04/24 10:23:07;;;;;;;4.35;2.97;;;19.50;48.60;;;;;;4954738;28;89613;-72
2022/04/24 10:25:38;;;;;;;4.90;2.88;;;19.50;48.70;;;;;;4955092;28;90329;-71
2022/04/24 10:28:16;;;;;;;5.55;3.00;;;19.50;48.50;;;;;;4956072;28;88554;-71
2022/04/24 10:30:44;;;;;;;4.80;2.70;;;19.50;48.50;;;;;;4955804;28;87484;-72
2022/04/24 10:33:22;;;;;;;4.25;2.78;;;19.50;48.50;;;;;;4955724;28;89687;-71
2022/04/24 10:35:49;;;;;;;3.05;2.75;;;19.60;48.60;;;;;;4954766;28;89366;-71
2022/04/24 10:38:17;;;;;;;4.63;2.60;;;19.60;48.60;;;;;;4954757;28;88693;-71
2022/04/24 10:40:56;;;;;;;4.32;2.47;;;19.60;48.60;;;;;;4954497;28;88142;-70
2022/04/24 10:43:22;;;;;;;2.60;2.33;;;19.60;48.60;;;;;;4954318;28;89533;-71
2022/04/24 10:45:48;;;;;;;4.13;2.47;;;19.60;48.60;;;;;;4954726;28;89969;-71
2022/04/24 10:48:17;;;;;;;3.45;2.40;;;19.70;48.70;;;;;;4955691;28;88620;-71
2022/04/24 10:50:49;;;;;;;6.97;2.60;;;19.70;48.60;;;;;;4955151;28;88153;-71
2022/04/24 10:53:15;;;;;;;6.97;2.60;;;19.70;48.60;;;;;;4954395;28;88819;-70
2022/04/24 10:55:42;;;;;;;6.82;3.33;;;19.70;48.70;;;;;;4955270;28;88458;-71
2022/04/24 10:58:09;;;;;;;14.75;5.30;;;19.70;48.80;;;;;;4956591;28;88324;-72
2022/04/24 11:00:38;;;;;;;14.25;4.40;;;19.70;48.70;;;;;;4957284;28;88570;-70
2022/04/24 11:03:14;;;;;;;7.65;4.10;;;19.80;48.10;;;;;;4955984;28;89094;-71
2022/04/24 11:05:42;;;;;;;7.28;3.30;;;19.80;47.10;;;;;;4954707;28;90749;-71
2022/04/24 11:08:09;;;;;;;6.85;3.20;;;19.70;45.70;;;;;;4955157;28;88138;-71
2022/04/24 11:10:43;;;;;;;4.40;2.72;;;19.70;44.60;;;;;;4953636;28;88468;-72
2022/04/24 11:13:16;;;;;;;4.57;2.80;;;19.70;43.60;;;;;;4953981;28;89222;-71
2022/04/24 11:15:44;;;;;;;6.43;2.85;;;19.70;42.80;;;;;;4954333;28;88815;-72
2022/04/24 11:18:20;;;;;;;5.93;2.80;;;19.70;42.50;;;;;;4954533;28;88684;-71
2022/04/24 11:21:01;;;;;;;4.38;2.50;;;19.70;41.80;;;;;;4954466;28;87281;-71
2022/04/24 11:23:38;;;;;;;3.03;2.50;;;19.70;41.70;;;;;;4953449;28;90257;-72
2022/04/24 11:26:12;;;;;;;3.22;2.40;;;19.70;41.50;;;;;;4953339;28;89547;-72
2022/04/24 11:28:40;;;;;;;4.75;2.80;;;19.70;41.50;;;;;;4952705;28;89581;-72
2022/04/24 11:31:26;;;;;;;3.88;3.03;;;19.60;41.50;;;;;;4953252;28;88098;-72
2022/04/24 11:33:59;;;;;;;4.70;2.42;;;19.60;41.30;;;;;;4951516;28;101840;-72
2022/04/24 11:36:34;;;;;;;4.90;2.75;;;19.60;41.20;;;;;;4953020;28;88767;-72
2022/04/24 11:39:03;;;;;;;4.13;2.63;;;19.60;40.90;;;;;;4953234;28;88395;-71
2022/04/24 11:41:30;;;;;;;3.00;2.45;;;19.60;40.80;;;;;;4953592;28;88852;-72
2022/04/24 11:50:13;;;;;;;4.50;2.95;;;19.60;40.60;;;;;;4953770;28;89279;-72
2022/04/24 11:52:24;;;;;;;4.28;2.95;;;19.50;40.20;;;;;;4952911;28;88644;-71
2022/04/24 11:54:53;;;;;;;3.83;2.88;;;19.50;40.00;;;;;;4953648;28;89326;-72
2022/04/24 11:57:24;;;;;;;3.08;2.70;;;19.50;39.90;;;;;;4952857;28;90553;-72
2022/04/24 11:59:54;;;;;;;4.35;2.50;;;19.50;39.90;;;;;;4953840;28;88753;-72
2022/04/24 12:02:24;;;;;;;4.13;2.92;;;19.50;39.80;;;;;;4953328;28;88501;-71
2022/04/24 12:04:51;;;;;;;5.13;3.00;;;19.50;39.70;;;;;;4954090;28;88706;-72
2022/04/24 12:07:17;;;;;;;3.38;2.70;;;19.50;39.90;;;;;;4952760;28;89077;-71
2022/04/24 12:09:43;;;;;;;3.33;2.80;;;19.50;40.40;;;;;;4953818;28;88153;-71
2022/04/24 12:12:14;;;;;;;4.30;2.88;;;19.50;40.20;;;;;;4953571;28;87569;-72
2022/04/24 12:14:42;;;;;;;3.95;2.65;;;19.50;40.10;;;;;;4953093;28;89977;-71
2022/04/24 12:17:11;;;;;;;4.82;2.53;;;19.50;39.90;;;;;;4952635;28;89629;-72
2022/04/24 12:19:41;;;;;;;4.57;2.75;;;19.50;39.70;;;;;;4952294;28;89417;-72
2022/04/24 12:22:09;;;;;;;5.63;2.60;;;19.50;39.60;;;;;;4952153;28;88100;-73
2022/04/24 12:24:39;;;;;;;10.90;2.50;;;19.50;39.80;;;;;;4952231;28;89955;-72
2022/04/24 12:27:09;;;;;;;6.25;2.38;;;19.60;39.90;;;;;;4952804;28;89461;-73
2022/04/24 12:29:57;;;;;;;8.55;2.47;;;19.60;40.00;;;;;;4954133;28;88344;-72
2022/04/24 12:32:28;;;;;;;3.00;2.33;;;19.60;40.10;;;;;;4952584;28;88648;-72
2022/04/24 12:34:53;;;;;;;4.07;2.10;;;19.60;40.20;;;;;;4952877;28;90054;-72
2022/04/24 12:37:30;;;;;;;4.18;2.40;;;19.60;40.40;;;;;;4953903;28;89363;-73
2022/04/24 12:39:56;;;;;;;4.53;2.38;;;19.60;40.40;;;;;;4957186;28;88201;-72
2022/04/24 12:42:22;;;;;;;4.82;2.20;;;19.60;40.60;;;;;;4957029;28;88237;-72
2022/04/24 12:44:50;;;;;;;4.75;2.35;;;19.60;40.80;;;;;;4958283;28;89459;-73
2022/04/24 12:47:16;;;;;;;5.32;2.17;;;19.60;40.80;;;;;;4954446;28;89201;-73
2022/04/24 12:49:44;;;;;;;5.35;1.83;;;19.70;41.00;;;;;;4953644;28;88973;-73
2022/04/24 12:52:10;;;;;;;5.72;2.20;;;19.70;41.10;;;;;;4952593;28;88128;-72
2022/04/24 12:54:36;;;;;;;3.15;1.90;;;19.70;41.30;;;;;;4952153;28;89685;-73
2022/04/24 12:57:12;;;;;;;5.53;2.13;;;19.70;41.40;;;;;;4952269;28;89422;-71
2022/04/24 12:59:39;;;;;;;3.40;2.05;;;19.70;41.50;;;;;;4952617;28;88133;-72
2022/04/24 13:02:05;;;;;;;3.83;2.00;;;19.70;41.70;;;;;;4952492;28;87761;-74
2022/04/24 13:04:34;;;;;;;3.53;2.03;;;19.70;41.70;;;;;;4952001;28;90032;-74
2022/04/24 13:07:00;;;;;;;2.92;2.00;;;19.70;41.80;;;;;;4953101;28;88541;-73
2022/04/24 13:09:27;;;;;;;3.47;1.73;;;19.70;42.00;;;;;;4952390;28;88950;-73
2022/04/24 13:11:54;;;;;;;4.47;2.13;;;19.70;42.10;;;;;;4951898;28;88970;-73
2022/04/24 13:14:21;;;;;;;3.85;1.92;;;19.70;42.10;;;;;;4951731;28;89598;-73
2022/04/24 13:19:33;;;;;;;2.63;1.90;;;19.70;42.30;;;;;;4951935;28;88595;-73
2022/04/24 13:21:58;;;;;;;3.75;2.00;;;19.70;42.40;;;;;;4952071;28;88194;-73
2022/04/24 13:24:24;;;;;;;3.95;1.73;;;19.70;42.60;;;;;;4952530;28;89604;-73
2022/04/24 13:26:49;;;;;;;3.75;1.67;;;19.70;42.60;;;;;;4952497;28;88728;-73
2022/04/24 13:29:15;;;;;;;2.40;1.80;;;19.70;42.60;;;;;;4952356;28;88269;-73
2022/04/24 13:31:40;;;;;;;2.72;1.85;;;19.70;42.70;;;;;;4951999;28;88351;-73
2022/04/24 13:34:06;;;;;;;3.80;1.90;;;19.70;42.80;;;;;;4950909;28;99805;-72
2022/04/24 13:36:32;;;;;;;3.80;1.65;;;19.70;42.80;;;;;;4950666;28;89414;-73
2022/04/24 13:38:57;;;;;;;3.17;1.90;;;19.70;42.90;;;;;;4952403;28;88145;-74
2022/04/24 13:41:23;;;;;;;2.38;1.80;;;19.70;43.00;;;;;;4953164;28;88505;-72
2022/04/24 13:43:48;;;;;;;5.25;2.08;;;19.70;43.00;;;;;;4952311;28;88707;-72
2022/04/24 13:46:14;;;;;;;3.40;1.90;;;19.70;43.10;;;;;;4934774;28;90102;-72
2022/04/24 13:48:41;;;;;;;2.72;1.55;;;19.70;43.10;;;;;;4952317;28;88135;-73
2022/04/24 13:51:07;;;;;;;2.70;1.80;;;19.70;43.10;;;;;;4952675;28;88263;-72
2022/04/24 13:53:33;;;;;;;4.88;1.83;;;19.70;43.20;;;;;;4951916;28;89767;-72
2022/04/24 13:56:00;;;;;;;3.30;1.70;;;19.70;43.10;;;;;;4953130;28;88786;-72
2022/04/24 13:58:26;;;;;;;2.83;1.90;;;19.70;43.20;;;;;;4955465;28;88912;-71
2022/04/24 14:00:55;;;;;;;2.42;1.73;;;19.70;43.30;;;;;;4956253;28;88423;-72
2022/04/24 14:03:22;;;;;;;1.90;1.70;;;19.80;43.40;;;;;;4956324;28;88768;-72
2022/04/24 14:05:49;;;;;;;3.15;1.40;;;19.80;43.50;;;;;;4955115;28;88375;-72
2022/04/24 14:08:16;;;;;;;2.50;1.73;;;19.70;43.50;;;;;;4955515;28;88247;-71
2022/04/24 14:10:46;;;;;;;2.60;1.80;;;19.70;43.60;;;;;;4955096;28;88857;-72
2022/04/24 14:13:12;;;;;;;2.88;1.70;;;19.70;43.60;;;;;;4954015;28;88538;-72
2022/04/24 14:15:38;;;;;;;3.30;1.65;;;19.70;43.70;;;;;;4937108;28;88935;-72
2022/04/24 14:18:04;;;;;;;1.92;1.50;;;19.70;43.80;;;;;;4957203;28;88102;-72
2022/04/24 14:20:31;;;;;;;2.85;1.45;;;19.70;43.70;;;;;;4959326;28;88447;-72
2022/04/24 14:22:59;;;;;;;2.00;1.52;;;19.70;43.90;;;;;;4959183;28;89421;-72
2022/04/24 14:25:25;;;;;;;2.67;1.80;;;19.70;43.90;;;;;;4959430;28;89251;-71
2022/04/24 14:27:51;;;;;;;2.25;1.55;;;19.70;43.90;;;;;;4956227;28;88187;-73
2022/04/24 14:30:20;;;;;;;2.60;1.75;;;19.70;43.90;;;;;;4954514;28;88237;-72
2022/04/24 14:32:46;;;;;;;2.13;1.52;;;19.70;44.10;;;;;;4954590;28;90289;-71
2022/04/24 14:35:12;;;;;;;2.08;1.60;;;19.70;44.10;;;;;;4953778;28;92179;-71
2022/04/24 14:37:38;;;;;;;2.53;1.60;;;19.70;44.00;;;;;;4954421;28;88640;-72
2022/04/24 14:40:06;;;;;;;2.10;1.60;;;19.70;44.00;;;;;;4954968;28;87649;-72
2022/04/24 14:42:35;;;;;;;3.22;1.60;;;19.70;44.00;;;;;;4954254;28;88179;-72
2022/04/24 14:45:03;;;;;;;1.60;1.50;;;19.80;44.10;;;;;;4954504;28;90061;-73
2022/04/24 14:55:44;;;;;;;2.13;1.67;;;19.80;44.20;;;;;;4954884;28;88600;-72
2022/04/24 14:58:10;;;;;;;2.45;1.70;;;19.80;44.40;;;;;;4954390;28;88468;-72
2022/04/24 15:00:35;;;;;;;2.35;1.60;;;19.80;44.40;;;;;;4953817;28;88507;-72
2022/04/24 15:03:04;;;;;;;2.08;1.45;;;19.80;44.20;;;;;;4953712;28;88448;-72
2022/04/24 15:05:30;;;;;;;1.73;1.50;;;19.80;44.50;;;;;;4954994;28;88714;-71
2022/04/24 15:07:56;;;;;;;2.03;1.30;;;19.80;44.40;;;;;;4953848;28;88214;-72
2022/04/24 15:10:21;;;;;;;2.63;1.65;;;19.90;44.30;;;;;;4954222;28;88496;-71
2022/04/24 15:12:47;;;;;;;3.25;1.75;;;19.90;44.30;;;;;;4953718;28;92248;-72